createdAt,value
2018-06-03T00:01:36.943Z,19.04
2018-06-03T00:04:06.105Z,18.96
2018-06-03T00:06:35.164Z,18.84
2018-06-03T00:09:05.371Z,18.74
2018-06-03T00:11:34.795Z,18.63
2018-06-03T00:14:03.716Z,18.61
2018-06-03T00:16:32.714Z,18.56
2018-06-03T00:19:01.645Z,18.53
2018-06-03T00:21:41.537Z,18.52
2018-06-03T00:24:10.599Z,18.51
2018-06-03T00:26:39.559Z,18.51
2018-06-03T00:29:08.570Z,18.49
2018-06-03T00:31:37.629Z,18.45
2018-06-03T00:34:06.542Z,18.40
2018-06-03T00:36:46.818Z,18.33
2018-06-03T00:39:16.893Z,18.28
2018-06-03T00:41:45.791Z,18.21
2018-06-03T00:44:14.877Z,18.13
2018-06-03T00:46:43.839Z,18.06
2018-06-03T00:49:12.767Z,18.02
2018-06-03T00:51:41.825Z,17.94
2018-06-03T00:54:10.780Z,17.83
2018-06-03T00:56:50.999Z,17.71
2018-06-03T00:59:19.963Z,17.60
2018-06-03T01:01:48.927Z,17.52
2018-06-03T01:04:18.023Z,17.44
2018-06-03T01:06:46.960Z,17.38
2018-06-03T01:09:16.429Z,17.34
2018-06-03T01:11:45.392Z,17.31
2018-06-03T01:14:14.333Z,17.25
2018-06-03T01:16:43.266Z,17.16
2018-06-03T01:19:12.927Z,17.08
2018-06-03T01:21:41.909Z,17.02
2018-06-03T01:24:10.929Z,16.92
2018-06-03T01:26:40.059Z,16.83
2018-06-03T01:29:09.741Z,16.76
2018-06-03T01:31:38.746Z,16.75
2018-06-03T01:34:07.807Z,16.76
2018-06-03T01:36:37.329Z,16.75
2018-06-03T01:39:07.719Z,16.74
2018-06-03T01:41:36.704Z,16.67
2018-06-03T01:44:05.682Z,16.63
2018-06-03T01:46:34.696Z,16.54
2018-06-03T01:49:03.589Z,16.50
2018-06-03T01:51:32.496Z,16.48
2018-06-03T01:54:01.431Z,16.47
2018-06-03T01:56:30.424Z,16.49
2018-06-03T01:58:59.445Z,16.49
2018-06-03T02:01:28.647Z,16.44
2018-06-03T02:03:57.671Z,16.40
2018-06-03T02:06:26.604Z,16.38
2018-06-03T02:08:55.664Z,16.38
2018-06-03T02:11:24.558Z,16.36
2018-06-03T02:13:53.549Z,16.31
2018-06-03T02:16:22.563Z,16.29
2018-06-03T02:18:51.499Z,16.31
2018-06-03T02:21:20.473Z,16.34
2018-06-03T02:23:50.619Z,16.34
2018-06-03T02:26:19.527Z,16.35
2018-06-03T02:28:48.447Z,16.38
2018-06-03T02:31:17.457Z,16.39
2018-06-03T02:33:46.367Z,16.38
2018-06-03T02:36:15.273Z,16.34
2018-06-03T02:38:44.371Z,16.29
2018-06-03T02:41:13.358Z,16.26
2018-06-03T02:43:42.404Z,16.27
2018-06-03T02:46:14.414Z,16.26
2018-06-03T02:48:43.319Z,16.27
2018-06-03T02:51:12.220Z,16.25
2018-06-03T02:53:42.244Z,16.26
2018-06-03T02:56:11.213Z,16.27
2018-06-03T02:58:40.136Z,16.31
2018-06-03T03:01:09.172Z,16.32
2018-06-03T03:03:38.072Z,16.33
2018-06-03T03:06:06.987Z,16.35
2018-06-03T03:08:36.110Z,16.38
2018-06-03T03:11:05.129Z,16.41
2018-06-03T03:13:34.069Z,16.43
2018-06-03T03:16:03.051Z,16.42
2018-06-03T03:18:32.052Z,16.44
2018-06-03T03:21:01.021Z,16.47
2018-06-03T03:23:29.964Z,16.52
2018-06-03T03:25:59.085Z,16.57
2018-06-03T03:28:28.059Z,16.59
2018-06-03T03:30:57.100Z,16.62
2018-06-03T03:33:26.066Z,16.66
2018-06-03T03:35:55.651Z,16.82
2018-06-03T03:38:25.336Z,16.91
2018-06-03T03:40:54.248Z,16.86
2018-06-03T03:43:23.158Z,16.82
2018-06-03T03:45:52.103Z,16.84
2018-06-03T03:48:21.092Z,16.89
2018-06-03T03:50:50.049Z,16.96
2018-06-03T03:53:19.116Z,17.04
2018-06-03T03:55:48.031Z,17.16
2018-06-03T03:58:17.078Z,17.22
2018-06-03T04:00:47.072Z,17.30
2018-06-03T04:03:15.997Z,17.40
2018-06-03T04:05:45.259Z,17.46
2018-06-03T04:08:14.212Z,17.51
2018-06-03T04:10:43.114Z,17.59
2018-06-03T04:13:13.024Z,17.61
2018-06-03T04:15:41.991Z,17.67
2018-06-03T04:18:10.988Z,17.76
2018-06-03T04:20:39.881Z,17.83
2018-06-03T04:23:09.473Z,17.93
2018-06-03T04:25:38.443Z,18.05
2018-06-03T04:28:07.446Z,18.12
2018-06-03T04:30:36.588Z,18.24
2018-06-03T04:33:06.325Z,18.36
2018-06-03T04:35:35.224Z,18.39
2018-06-03T04:38:04.349Z,18.43
2018-06-03T04:40:33.323Z,18.45
2018-06-03T04:43:02.776Z,18.41
2018-06-03T04:45:31.719Z,18.43
2018-06-03T04:48:00.715Z,18.53
2018-06-03T04:50:29.765Z,18.65
2018-06-03T04:52:59.324Z,18.85
2018-06-03T04:55:28.259Z,18.99
2018-06-03T04:57:57.172Z,19.24
2018-06-03T05:00:26.224Z,19.45
2018-06-03T05:02:55.410Z,19.74
2018-06-03T05:05:24.465Z,19.93
2018-06-03T05:07:54.500Z,20.28
2018-06-03T05:10:23.516Z,20.47
2018-06-03T05:12:52.464Z,20.71
2018-06-03T05:15:21.510Z,20.92
2018-06-03T05:17:50.473Z,21.09
2018-06-03T05:20:19.550Z,21.15
2018-06-03T05:22:48.472Z,21.26
2018-06-03T05:25:17.491Z,21.55
2018-06-03T05:27:46.385Z,21.60
2018-06-03T05:30:15.868Z,21.61
2018-06-03T05:32:44.847Z,21.84
2018-06-03T05:35:13.820Z,22.09
2018-06-03T05:37:42.881Z,22.32
2018-06-03T05:40:11.831Z,22.46
2018-06-03T05:42:40.722Z,22.51
2018-06-03T05:45:09.712Z,22.45
2018-06-03T05:47:38.647Z,22.61
2018-06-03T05:50:07.580Z,22.78
2018-06-03T05:52:36.616Z,22.91
2018-06-03T05:55:06.209Z,23.05
2018-06-03T05:57:35.167Z,23.18
2018-06-03T06:00:04.339Z,23.32
2018-06-03T06:02:33.293Z,23.53
2018-06-03T06:05:02.294Z,23.65
2018-06-03T06:07:31.444Z,23.81
2018-06-03T06:10:00.633Z,23.95
2018-06-03T06:12:29.620Z,23.68
2018-06-03T06:14:58.888Z,23.44
2018-06-03T06:17:27.875Z,23.60
2018-06-03T06:19:56.791Z,23.86
2018-06-03T06:22:25.939Z,23.93
2018-06-03T06:24:55.187Z,24.11
2018-06-03T06:27:24.521Z,24.36
2018-06-03T06:29:53.663Z,24.39
2018-06-03T06:32:22.809Z,24.12
2018-06-03T06:34:51.737Z,23.95
2018-06-03T06:37:20.908Z,24.03
2018-06-03T06:39:49.892Z,24.11
2018-06-03T06:42:18.828Z,24.42
2018-06-03T06:44:47.929Z,24.55
2018-06-03T06:47:16.867Z,24.75
2018-06-03T06:49:45.812Z,24.87
2018-06-03T06:52:15.633Z,24.70
2018-06-03T06:54:44.562Z,24.67
2018-06-03T06:57:13.470Z,24.83
2018-06-03T06:59:42.480Z,25.19
2018-06-03T07:02:12.533Z,25.56
2018-06-03T07:04:41.500Z,25.84
2018-06-03T07:07:10.492Z,25.95
2018-06-03T07:09:39.432Z,26.11
2018-06-03T07:12:08.395Z,26.27
2018-06-03T07:14:37.409Z,26.42
2018-06-03T07:17:06.528Z,26.19
2018-06-03T07:19:36.444Z,25.85
2018-06-03T07:22:05.573Z,25.96
2018-06-03T07:24:34.836Z,26.02
2018-06-03T07:27:04.647Z,26.23
2018-06-03T07:29:33.611Z,26.51
2018-06-03T07:32:02.601Z,26.71
2018-06-03T07:34:31.674Z,26.86
2018-06-03T07:37:00.833Z,27.01
2018-06-03T07:39:29.757Z,27.09
2018-06-03T07:41:58.759Z,27.34
2018-06-03T07:44:27.844Z,27.54
2018-06-03T07:46:57.762Z,27.73
2018-06-03T07:49:26.778Z,27.95
2018-06-03T07:51:55.769Z,28.10
2018-06-03T07:54:25.409Z,28.07
2018-06-03T07:56:54.356Z,27.88
2018-06-03T07:59:23.397Z,27.90
2018-06-03T08:01:52.385Z,28.21
2018-06-03T08:04:21.303Z,28.34
2018-06-03T08:06:51.326Z,28.42
2018-06-03T08:09:20.472Z,28.42
2018-06-03T08:11:49.379Z,28.72
2018-06-03T08:14:18.363Z,28.35
2018-06-03T08:16:47.291Z,28.16
2018-06-03T08:19:16.283Z,28.12
2018-06-03T08:21:45.280Z,28.27
2018-06-03T08:24:14.196Z,28.12
2018-06-03T08:26:43.109Z,28.33
2018-06-03T08:29:12.207Z,28.51
2018-06-03T08:31:41.153Z,28.73
2018-06-03T08:34:10.084Z,28.85
2018-06-03T08:36:40.014Z,28.94
2018-06-03T08:39:08.988Z,28.73
2018-06-03T08:41:40.876Z,28.60
2018-06-03T08:44:09.832Z,28.88
2018-06-03T08:46:38.715Z,29.15
2018-06-03T08:49:07.662Z,29.41
2018-06-03T08:51:36.564Z,29.75
2018-06-03T08:54:05.535Z,30.01
2018-06-03T08:56:34.524Z,30.23
2018-06-03T08:59:04.084Z,30.20
2018-06-03T09:01:33.023Z,30.34
2018-06-03T09:04:02.121Z,30.50
2018-06-03T09:06:31.030Z,30.55
2018-06-03T09:09:00.038Z,30.49
2018-06-03T09:11:30.007Z,30.72
2018-06-03T09:13:58.994Z,30.91
2018-06-03T09:16:27.987Z,30.91
2018-06-03T09:18:57.017Z,30.87
2018-06-03T09:21:26.012Z,30.86
2018-06-03T09:23:54.917Z,30.87
2018-06-03T09:26:24.016Z,30.44
2018-06-03T09:28:52.984Z,30.57
2018-06-03T09:31:22.590Z,30.74
2018-06-03T09:33:51.638Z,30.85
2018-06-03T09:36:20.608Z,31.00
2018-06-03T09:38:49.617Z,31.19
2018-06-03T09:41:18.565Z,31.18
2018-06-03T09:43:47.553Z,31.09
2018-06-03T09:46:16.516Z,31.22
2018-06-03T09:48:45.641Z,31.44
2018-06-03T09:51:14.883Z,31.44
2018-06-03T09:53:43.805Z,31.50
2018-06-03T09:56:12.782Z,31.51
2018-06-03T09:58:41.680Z,31.60
2018-06-03T10:01:11.007Z,31.68
2018-06-03T10:03:40.016Z,31.67
2018-06-03T10:06:09.712Z,31.76
2018-06-03T10:08:38.685Z,31.97
2018-06-03T10:11:07.876Z,31.97
2018-06-03T10:13:36.797Z,32.27
2018-06-03T10:16:05.777Z,32.60
2018-06-03T10:18:35.567Z,32.71
2018-06-03T10:21:04.510Z,32.33
2018-06-03T10:23:33.473Z,31.83
2018-06-03T10:26:02.598Z,31.58
2018-06-03T10:28:32.305Z,31.33
2018-06-03T10:31:01.269Z,31.14
2018-06-03T10:33:30.352Z,31.16
2018-06-03T10:36:00.088Z,31.13
2018-06-03T10:38:29.019Z,31.20
2018-06-03T10:40:58.078Z,31.20
2018-06-03T10:43:27.750Z,31.17
2018-06-03T10:45:57.310Z,31.23
2018-06-03T10:48:26.363Z,31.20
2018-06-03T10:50:55.300Z,31.23
2018-06-03T10:53:24.268Z,31.54
2018-06-03T10:55:53.302Z,31.84
2018-06-03T10:58:23.243Z,32.02
2018-06-03T11:00:52.172Z,32.14
2018-06-03T11:03:21.116Z,32.19
2018-06-03T11:05:50.046Z,32.03
2018-06-03T11:08:19.116Z,31.68
2018-06-03T11:10:48.216Z,31.49
2018-06-03T11:13:17.808Z,31.33
2018-06-03T11:15:47.092Z,30.85
2018-06-03T11:18:16.142Z,30.65
2018-06-03T11:20:45.062Z,30.10
2018-06-03T11:23:13.991Z,29.44
2018-06-03T11:25:43.425Z,28.59
2018-06-03T11:28:12.380Z,27.40
2018-06-03T11:30:41.306Z,26.25
2018-06-03T11:33:10.292Z,25.19
2018-06-03T11:35:39.832Z,23.99
2018-06-03T11:38:08.757Z,23.12
2018-06-03T11:40:37.941Z,21.83
2018-06-03T11:43:07.704Z,21.30
2018-06-03T11:45:36.711Z,20.93
2018-06-03T11:48:06.436Z,20.85
2018-06-03T11:50:35.389Z,20.67
2018-06-03T11:53:04.339Z,20.63
2018-06-03T11:55:33.478Z,20.53
2018-06-03T11:58:42.553Z,20.59
2018-06-03T12:01:14.219Z,20.66
2018-06-03T12:03:45.580Z,20.77
2018-06-03T12:06:17.657Z,20.88
2018-06-03T12:08:49.052Z,20.94
2018-06-03T12:11:21.830Z,21.03
2018-06-03T12:13:52.580Z,21.09
2018-06-03T12:16:25.157Z,21.11
2018-06-03T12:18:57.100Z,21.10
2018-06-03T12:21:29.118Z,21.09
2018-06-03T12:24:01.007Z,21.11
2018-06-03T12:26:30.116Z,21.14
2018-06-03T12:28:59.134Z,21.21
2018-06-03T12:31:28.701Z,21.24
2018-06-03T12:33:57.684Z,21.28
2018-06-03T12:36:27.304Z,21.32
2018-06-03T12:38:56.235Z,21.26
2018-06-03T12:41:25.921Z,21.24
2018-06-03T12:43:54.926Z,21.19
2018-06-03T12:46:23.905Z,21.22
2018-06-03T12:48:53.040Z,21.21
2018-06-03T12:51:21.958Z,21.17
2018-06-03T12:53:51.492Z,21.20
2018-06-03T12:56:20.547Z,21.24
2018-06-03T12:58:49.540Z,21.27
2018-06-03T13:01:18.500Z,21.37
2018-06-03T13:03:47.540Z,21.32
2018-06-03T13:06:17.468Z,21.30
2018-06-03T13:08:46.592Z,21.22
2018-06-03T13:11:15.628Z,21.12
2018-06-03T13:13:44.621Z,20.97
2018-06-03T13:16:13.581Z,20.90
2018-06-03T13:18:42.812Z,20.92
2018-06-03T13:21:11.787Z,21.02
2018-06-03T13:23:40.788Z,21.09
2018-06-03T13:26:09.770Z,21.19
2018-06-03T13:28:39.372Z,21.26
2018-06-03T13:31:08.301Z,21.39
2018-06-03T13:33:37.317Z,21.51
2018-06-03T13:36:06.608Z,21.59
2018-06-03T13:38:35.617Z,21.68
2018-06-03T13:41:04.824Z,21.79
2018-06-03T13:43:33.792Z,21.92
2018-06-03T13:46:02.913Z,22.12
2018-06-03T13:48:31.909Z,22.31
2018-06-03T13:51:00.876Z,22.57
2018-06-03T13:53:29.854Z,22.79
2018-06-03T13:55:58.979Z,22.99
2018-06-03T13:58:27.962Z,23.13
2018-06-03T14:00:56.901Z,23.24
2018-06-03T14:03:26.501Z,23.38
2018-06-03T14:05:55.511Z,23.55
2018-06-03T14:08:24.690Z,23.76
2018-06-03T14:10:53.852Z,23.94
2018-06-03T14:13:22.796Z,24.09
2018-06-03T14:15:51.772Z,24.27
2018-06-03T14:18:20.790Z,24.47
2018-06-03T14:20:50.415Z,24.63
2018-06-03T14:23:20.174Z,24.78
2018-06-03T14:25:49.239Z,24.87
2018-06-03T14:28:19.021Z,24.92
2018-06-03T14:30:47.996Z,24.98
2018-06-03T14:33:17.088Z,25.02
2018-06-03T14:35:46.070Z,25.04
2018-06-03T14:38:15.047Z,25.13
2018-06-03T14:40:44.601Z,25.22
2018-06-03T14:43:13.636Z,25.26
2018-06-03T14:45:42.688Z,25.31
2018-06-03T14:48:11.881Z,25.29
2018-06-03T14:50:40.842Z,25.35
2018-06-03T14:53:09.812Z,25.41
2018-06-03T14:55:39.671Z,25.50
2018-06-03T14:58:08.581Z,25.52
2018-06-03T15:00:37.495Z,25.57
2018-06-03T15:03:06.488Z,25.54
2018-06-03T15:05:35.398Z,25.59
2018-06-03T15:08:04.426Z,25.58
2018-06-03T15:10:33.551Z,25.55
2018-06-03T15:13:02.528Z,25.49
2018-06-03T15:15:32.021Z,25.48
2018-06-03T15:18:01.722Z,25.43
2018-06-03T15:20:31.596Z,25.41
2018-06-03T15:23:00.544Z,25.37
2018-06-03T15:25:29.605Z,25.42
2018-06-03T15:27:58.551Z,25.37
2018-06-03T15:30:27.585Z,25.35
2018-06-03T15:32:57.378Z,25.34
2018-06-03T15:35:26.320Z,25.32
2018-06-03T15:37:55.256Z,25.31
2018-06-03T15:40:24.347Z,25.34
2018-06-03T15:42:53.301Z,25.34
2018-06-03T15:45:22.555Z,25.39
2018-06-03T15:47:51.608Z,25.34
2018-06-03T15:50:20.656Z,25.34
2018-06-03T15:52:49.694Z,25.32
2018-06-03T15:55:18.740Z,25.31
2018-06-03T15:57:47.727Z,25.29
2018-06-03T16:00:16.666Z,25.22
2018-06-03T16:02:45.762Z,25.19
2018-06-03T16:05:14.692Z,25.17
2018-06-03T16:07:43.611Z,25.25
2018-06-03T16:10:12.592Z,25.28
2018-06-03T16:12:41.536Z,25.29
2018-06-03T16:15:12.424Z,25.25
2018-06-03T16:17:41.347Z,25.20
2018-06-03T16:20:10.301Z,25.19
2018-06-03T16:22:39.337Z,25.16
2018-06-03T16:25:09.418Z,25.13
2018-06-03T16:27:38.376Z,25.12
2018-06-03T16:30:07.430Z,25.08
2018-06-03T16:32:36.408Z,25.04
2018-06-03T16:35:06.282Z,25.04
2018-06-03T16:37:35.441Z,25.06
2018-06-03T16:40:04.715Z,25.03
2018-06-03T16:42:33.718Z,25.03
2018-06-03T16:45:02.789Z,25.03
2018-06-03T16:47:31.754Z,25.06
2018-06-03T16:50:01.209Z,25.07
2018-06-03T16:52:30.330Z,25.06
2018-06-03T16:54:59.260Z,25.02
2018-06-03T16:57:28.401Z,24.99
2018-06-03T16:59:57.508Z,24.91
2018-06-03T17:02:26.742Z,24.94
2018-06-03T17:04:55.718Z,24.96
2018-06-03T17:07:24.762Z,24.94
2018-06-03T17:09:53.815Z,24.89
2018-06-03T17:12:23.431Z,24.80
2018-06-03T17:14:52.466Z,24.70
2018-06-03T17:17:21.408Z,24.58
2018-06-03T17:19:50.664Z,24.50
2018-06-03T17:22:19.657Z,24.42
2018-06-03T17:24:48.573Z,24.31
2018-06-03T17:27:17.515Z,24.22
2018-06-03T17:29:46.521Z,24.12
2018-06-03T17:32:15.454Z,24.07
2018-06-03T17:34:44.425Z,24.00
2018-06-03T17:37:13.476Z,23.91
2018-06-03T17:39:42.389Z,23.78
2018-06-03T17:42:11.335Z,23.74
2018-06-03T17:44:40.392Z,23.68
2018-06-03T17:47:09.352Z,23.59
2018-06-03T17:49:38.366Z,23.54
2018-06-03T17:52:07.356Z,23.50
2018-06-03T17:54:38.061Z,23.40
2018-06-03T17:57:07.146Z,23.30
2018-06-03T17:59:36.162Z,23.17
2018-06-03T18:02:05.212Z,23.11
2018-06-03T18:04:34.207Z,22.98
2018-06-03T18:07:03.163Z,22.88
2018-06-03T18:09:32.091Z,22.77
2018-06-03T18:12:01.133Z,22.66
2018-06-03T18:14:30.112Z,22.54
2018-06-03T18:16:59.147Z,22.41
2018-06-03T18:19:28.367Z,22.24
2018-06-03T18:21:57.304Z,22.13
2018-06-03T18:24:26.264Z,22.01
2018-06-03T18:26:55.228Z,21.94
2018-06-03T18:29:24.280Z,21.88
2018-06-03T18:31:53.218Z,21.83
2018-06-03T18:34:22.256Z,21.77
2018-06-03T18:36:51.220Z,21.73
2018-06-03T18:39:20.548Z,21.66
2018-06-03T18:41:49.593Z,21.65
2018-06-03T18:44:18.709Z,21.60
2018-06-03T18:46:47.825Z,21.60
2018-06-03T18:49:17.024Z,21.58
2018-06-03T18:51:45.984Z,21.68
2018-06-03T18:54:14.908Z,21.68
2018-06-03T18:56:44.894Z,21.65
2018-06-03T18:59:13.895Z,21.59
2018-06-03T19:01:43.348Z,21.57
2018-06-03T19:04:13.090Z,21.55
2018-06-03T19:06:42.035Z,21.47
2018-06-03T19:09:11.077Z,21.41
2018-06-03T19:11:40.654Z,21.27
2018-06-03T19:14:09.672Z,21.19
2018-06-03T19:16:39.459Z,21.11
2018-06-03T19:19:08.498Z,21.03
2018-06-03T19:21:37.452Z,20.97
2018-06-03T19:24:07.278Z,20.92
2018-06-03T19:26:37.442Z,20.94
2018-06-03T19:29:06.581Z,20.89
2018-06-03T19:31:35.554Z,20.87
2018-06-03T19:34:05.360Z,20.84
2018-06-03T19:36:34.352Z,20.82
2018-06-03T19:39:05.095Z,20.84
2018-06-03T19:41:34.945Z,20.83
2018-06-03T19:44:03.908Z,20.85
2018-06-03T19:46:32.927Z,20.80
2018-06-03T19:49:01.888Z,20.83
2018-06-03T19:51:30.801Z,20.86
2018-06-03T19:54:00.072Z,20.90
2018-06-03T19:56:29.020Z,20.86
2018-06-03T19:58:58.022Z,20.83
2018-06-03T20:01:26.997Z,20.76
2018-06-03T20:03:56.052Z,20.68
2018-06-03T20:06:25.548Z,20.65
2018-06-03T20:08:54.455Z,20.62
2018-06-03T20:11:26.789Z,20.59
2018-06-03T20:13:58.611Z,20.52
2018-06-03T20:16:30.701Z,20.53
2018-06-03T20:19:03.276Z,20.54
2018-06-03T20:21:34.312Z,20.60
2018-06-03T20:24:03.344Z,20.67
2018-06-03T20:26:32.947Z,20.76
2018-06-03T20:29:03.556Z,20.86
2018-06-03T20:31:33.095Z,20.92
2018-06-03T20:34:02.016Z,20.97
2018-06-03T20:36:30.975Z,21.03
2018-06-03T20:39:01.703Z,21.10
2018-06-03T20:41:32.977Z,21.14
2018-06-03T20:44:01.942Z,21.16
2018-06-03T20:46:30.857Z,21.20
2018-06-03T20:48:59.836Z,21.22
2018-06-03T20:51:28.817Z,21.24
2018-06-03T20:53:57.758Z,21.28
2018-06-03T20:56:26.803Z,21.30
2018-06-03T20:58:56.644Z,21.33
2018-06-03T21:01:28.624Z,21.38
2018-06-03T21:03:57.663Z,21.43
2018-06-03T21:06:27.404Z,21.44
2018-06-03T21:08:56.443Z,21.44
2018-06-03T21:11:25.404Z,21.37
2018-06-03T21:13:54.348Z,21.31
2018-06-03T21:16:23.295Z,21.24
2018-06-03T21:18:53.092Z,21.23
2018-06-03T21:21:22.037Z,21.22
2018-06-03T21:23:51.102Z,21.16
2018-06-03T21:26:20.009Z,21.11
2018-06-03T21:28:48.958Z,21.07
2018-06-03T21:31:17.996Z,21.00
2018-06-03T21:33:46.944Z,20.98
2018-06-03T21:36:15.894Z,20.92
2018-06-03T21:38:45.025Z,20.82
2018-06-03T21:41:15.138Z,20.74
2018-06-03T21:43:44.676Z,20.66
2018-06-03T21:46:13.645Z,20.61
2018-06-03T21:48:42.593Z,20.58
2018-06-03T21:51:11.647Z,20.55
2018-06-03T21:53:41.576Z,20.49
2018-06-03T21:56:11.181Z,20.41
2018-06-03T21:58:40.153Z,20.33
2018-06-03T22:01:10.670Z,20.26
2018-06-03T22:03:39.940Z,20.16
2018-06-03T22:06:08.871Z,20.03
2018-06-03T22:08:37.877Z,20.00
2018-06-03T22:11:06.971Z,19.96
2018-06-03T22:13:36.061Z,19.93
2018-06-03T22:16:05.020Z,19.93
2018-06-03T22:18:34.026Z,19.88
2018-06-03T22:21:02.961Z,19.86
2018-06-03T22:23:31.951Z,19.81
2018-06-03T22:26:01.585Z,19.79
2018-06-03T22:28:32.265Z,19.77
2018-06-03T22:31:01.414Z,19.74
2018-06-03T22:33:30.361Z,19.69
2018-06-03T22:35:59.349Z,19.70
2018-06-03T22:38:28.405Z,19.70
2018-06-03T22:40:57.574Z,19.70
2018-06-03T22:43:26.574Z,19.72
2018-06-03T22:45:55.563Z,19.75
2018-06-03T22:48:25.043Z,19.79
2018-06-03T22:50:54.063Z,19.80
2018-06-03T22:53:24.016Z,19.83
2018-06-03T22:55:53.019Z,19.86
2018-06-03T22:58:21.959Z,19.87
2018-06-03T23:00:51.001Z,19.87
2018-06-03T23:03:19.942Z,19.85
2018-06-03T23:05:50.631Z,19.85
2018-06-03T23:08:19.625Z,19.78
2018-06-03T23:10:48.589Z,19.75
2018-06-03T23:13:17.641Z,19.67
2018-06-03T23:15:46.720Z,19.60
2018-06-03T23:18:16.493Z,19.53
2018-06-03T23:20:45.797Z,19.56
2018-06-03T23:23:14.780Z,19.57
2018-06-03T23:25:43.727Z,19.55
2018-06-03T23:28:12.649Z,19.56
2018-06-03T23:30:41.696Z,19.56
2018-06-03T23:33:10.592Z,19.55
2018-06-03T23:35:39.528Z,19.52
2018-06-03T23:38:08.528Z,19.51
2018-06-03T23:40:37.469Z,19.52
2018-06-03T23:43:07.035Z,19.51
2018-06-03T23:45:36.032Z,19.57
2018-06-03T23:48:05.070Z,19.60
2018-06-03T23:50:34.071Z,19.61
2018-06-03T23:53:03.344Z,19.61
2018-06-03T23:55:32.352Z,19.67
2018-06-03T23:58:01.312Z,19.72
